sensor_id;sensor_type;location;lat;lon;timestamp;P1;durP1;ratioP1;P2;durP2;ratioP2
40244;SDS011;25963;42.694;23.600;2022-11-11T00:01:00;47.70;;;25.30;;
40244;SDS011;25963;42.694;23.600;2022-11-11T00:03:29;42.97;;;26.48;;
40244;SDS011;25963;42.694;23.600;2022-11-11T00:06:01;47.30;;;26.48;;
40244;SDS011;25963;42.694;23.600;2022-11-11T00:08:28;45.28;;;26.33;;
40244;SDS011;25963;42.694;23.600;2022-11-11T00:11:01;42.88;;;26.90;;
40244;SDS011;25963;42.694;23.600;2022-11-11T00:13:27;43.53;;;26.45;;
40244;SDS011;25963;42.694;23.600;2022-11-11T00:15:54;43.00;;;27.15;;
40244;SDS011;25963;42.694;23.600;2022-11-11T00:18:19;43.97;;;27.45;;
40244;SDS011;25963;42.694;23.600;2022-11-11T00:21:03;49.55;;;30.35;;
40244;SDS011;25963;42.694;23.600;2022-11-11T00:23:47;48.78;;;27.98;;
40244;SDS011;25963;42.694;23.600;2022-11-11T00:26:31;49.13;;;29.08;;
40244;SDS011;25963;42.694;23.600;2022-11-11T00:28:56;56.38;;;32.60;;
40244;SDS011;25963;42.694;23.600;2022-11-11T00:31:22;59.75;;;32.38;;
40244;SDS011;25963;42.694;23.600;2022-11-11T00:33:47;55.42;;;30.88;;
40244;SDS011;25963;42.694;23.600;2022-11-11T00:36:13;54.13;;;31.50;;
40244;SDS011;25963;42.694;23.600;2022-11-11T00:38:38;72.35;;;34.88;;
40244;SDS011;25963;42.694;23.600;2022-11-11T00:41:12;58.72;;;34.05;;
40244;SDS011;25963;42.694;23.600;2022-11-11T00:43:39;64.25;;;34.33;;
40244;SDS011;25963;42.694;23.600;2022-11-11T00:46:05;63.90;;;36.95;;
40244;SDS011;25963;42.694;23.600;2022-11-11T00:48:49;63.28;;;35.40;;
40244;SDS011;25963;42.694;23.600;2022-11-11T00:51:33;63.03;;;34.17;;
40244;SDS011;25963;42.694;23.600;2022-11-11T00:53:58;62.47;;;35.40;;
40244;SDS011;25963;42.694;23.600;2022-11-11T00:56:24;69.25;;;37.13;;
40244;SDS011;25963;42.694;23.600;2022-11-11T00:58:49;65.57;;;37.72;;
40244;SDS011;25963;42.694;23.600;2022-11-11T01:01:15;69.32;;;37.58;;
40244;SDS011;25963;42.694;23.600;2022-11-11T01:03:41;67.10;;;37.78;;
40244;SDS011;25963;42.694;23.600;2022-11-11T01:06:08;65.60;;;36.83;;
40244;SDS011;25963;42.694;23.600;2022-11-11T01:08:35;66.20;;;37.55;;
40244;SDS011;25963;42.694;23.600;2022-11-11T01:11:01;72.10;;;38.60;;
40244;SDS011;25963;42.694;23.600;2022-11-11T01:13:27;67.13;;;37.20;;
40244;SDS011;25963;42.694;23.600;2022-11-11T01:16:04;68.57;;;37.45;;
40244;SDS011;25963;42.694;23.600;2022-11-11T01:18:32;65.30;;;37.35;;
40244;SDS011;25963;42.694;23.600;2022-11-11T01:23:31;73.53;;;40.10;;
40244;SDS011;25963;42.694;23.600;2022-11-11T01:26:02;70.05;;;39.60;;
40244;SDS011;25963;42.694;23.600;2022-11-11T01:28:33;67.57;;;38.70;;
40244;SDS011;25963;42.694;23.600;2022-11-11T01:31:06;67.32;;;38.35;;
40244;SDS011;25963;42.694;23.600;2022-11-11T01:33:33;67.95;;;37.60;;
40244;SDS011;25963;42.694;23.600;2022-11-11T01:36:02;69.45;;;39.05;;
40244;SDS011;25963;42.694;23.600;2022-11-11T01:38:29;73.07;;;40.97;;
40244;SDS011;25963;42.694;23.600;2022-11-11T01:40:55;69.05;;;37.15;;
40244;SDS011;25963;42.694;23.600;2022-11-11T01:43:21;67.80;;;37.65;;
40244;SDS011;25963;42.694;23.600;2022-11-11T01:53:55;59.65;;;33.05;;
40244;SDS011;25963;42.694;23.600;2022-11-11T01:56:25;62.67;;;33.92;;
40244;SDS011;25963;42.694;23.600;2022-11-11T01:58:51;64.55;;;34.22;;
40244;SDS011;25963;42.694;23.600;2022-11-11T02:01:20;56.75;;;31.08;;
40244;SDS011;25963;42.694;23.600;2022-11-11T02:03:45;59.30;;;31.13;;
40244;SDS011;25963;42.694;23.600;2022-11-11T02:06:31;55.95;;;31.15;;
40244;SDS011;25963;42.694;23.600;2022-11-11T02:08:58;57.63;;;31.23;;
40244;SDS011;25963;42.694;23.600;2022-11-11T02:11:25;53.88;;;30.70;;
40244;SDS011;25963;42.694;23.600;2022-11-11T02:14:10;55.15;;;31.15;;
40244;SDS011;25963;42.694;23.600;2022-11-11T02:16:54;59.55;;;31.70;;
40244;SDS011;25963;42.694;23.600;2022-11-11T02:19:21;53.58;;;29.73;;
40244;SDS011;25963;42.694;23.600;2022-11-11T02:21:59;54.85;;;31.17;;
40244;SDS011;25963;42.694;23.600;2022-11-11T02:24:26;56.10;;;29.98;;
40244;SDS011;25963;42.694;23.600;2022-11-11T02:26:54;47.15;;;26.98;;
40244;SDS011;25963;42.694;23.600;2022-11-11T02:29:22;56.60;;;28.27;;
40244;SDS011;25963;42.694;23.600;2022-11-11T02:31:48;49.13;;;26.88;;
40244;SDS011;25963;42.694;23.600;2022-11-11T02:34:13;43.92;;;26.42;;
40244;SDS011;25963;42.694;23.600;2022-11-11T02:36:39;46.08;;;26.10;;
40244;SDS011;25963;42.694;23.600;2022-11-11T02:39:06;42.88;;;25.45;;
40244;SDS011;25963;42.694;23.600;2022-11-11T02:41:31;47.63;;;27.52;;
40244;SDS011;25963;42.694;23.600;2022-11-11T02:44:16;49.30;;;26.90;;
40244;SDS011;25963;42.694;23.600;2022-11-11T02:46:41;45.88;;;26.05;;
40244;SDS011;25963;42.694;23.600;2022-11-11T02:49:06;46.65;;;26.75;;
40244;SDS011;25963;42.694;23.600;2022-11-11T02:51:32;51.33;;;27.05;;
40244;SDS011;25963;42.694;23.600;2022-11-11T02:53:57;51.85;;;27.92;;
40244;SDS011;25963;42.694;23.600;2022-11-11T02:56:26;54.70;;;30.67;;
40244;SDS011;25963;42.694;23.600;2022-11-11T02:59:10;50.30;;;27.80;;
40244;SDS011;25963;42.694;23.600;2022-11-11T03:01:35;55.80;;;28.52;;
40244;SDS011;25963;42.694;23.600;2022-11-11T03:04:01;49.75;;;28.88;;
40244;SDS011;25963;42.694;23.600;2022-11-11T03:06:26;51.95;;;28.80;;
40244;SDS011;25963;42.694;23.600;2022-11-11T03:08:52;47.53;;;27.55;;
40244;SDS011;25963;42.694;23.600;2022-11-11T03:11:17;47.97;;;26.25;;
40244;SDS011;25963;42.694;23.600;2022-11-11T03:13:52;50.35;;;28.52;;
40244;SDS011;25963;42.694;23.600;2022-11-11T03:16:18;52.08;;;27.00;;
40244;SDS011;25963;42.694;23.600;2022-11-11T03:19:02;53.85;;;28.92;;
40244;SDS011;25963;42.694;23.600;2022-11-11T03:21:27;49.30;;;27.13;;
40244;SDS011;25963;42.694;23.600;2022-11-11T03:23:53;53.85;;;29.08;;
40244;SDS011;25963;42.694;23.600;2022-11-11T03:26:18;50.38;;;28.38;;
40244;SDS011;25963;42.694;23.600;2022-11-11T03:28:44;49.08;;;27.10;;
40244;SDS011;25963;42.694;23.600;2022-11-11T03:31:09;53.65;;;29.15;;
40244;SDS011;25963;42.694;23.600;2022-11-11T03:33:34;54.28;;;28.58;;
40244;SDS011;25963;42.694;23.600;2022-11-11T03:36:00;52.15;;;29.48;;
40244;SDS011;25963;42.694;23.600;2022-11-11T03:38:25;55.30;;;28.90;;
40244;SDS011;25963;42.694;23.600;2022-11-11T03:40:51;47.08;;;26.73;;
40244;SDS011;25963;42.694;23.600;2022-11-11T03:43:20;46.35;;;26.52;;
40244;SDS011;25963;42.694;23.600;2022-11-11T03:45:48;48.88;;;28.77;;
40244;SDS011;25963;42.694;23.600;2022-11-11T03:48:14;46.08;;;26.23;;
40244;SDS011;25963;42.694;23.600;2022-11-11T03:50:40;48.58;;;26.27;;
40244;SDS011;25963;42.694;23.600;2022-11-11T03:53:06;49.10;;;26.30;;
40244;SDS011;25963;42.694;23.600;2022-11-11T03:55:32;49.78;;;25.55;;
40244;SDS011;25963;42.694;23.600;2022-11-11T03:57:57;49.88;;;27.95;;
40244;SDS011;25963;42.694;23.600;2022-11-11T04:00:24;49.35;;;26.08;;
40244;SDS011;25963;42.694;23.600;2022-11-11T04:02:59;48.72;;;27.55;;
40244;SDS011;25963;42.694;23.600;2022-11-11T04:05:44;49.17;;;27.65;;
40244;SDS011;25963;42.694;23.600;2022-11-11T04:08:28;54.88;;;29.17;;
40244;SDS011;25963;42.694;23.600;2022-11-11T04:11:13;54.80;;;29.58;;
40244;SDS011;25963;42.694;23.600;2022-11-11T04:13:43;53.95;;;28.10;;
40244;SDS011;25963;42.694;23.600;2022-11-11T04:16:30;52.95;;;29.92;;
40244;SDS011;25963;42.694;23.600;2022-11-11T04:18:55;60.08;;;32.45;;
40244;SDS011;25963;42.694;23.600;2022-11-11T04:21:39;57.53;;;32.13;;
40244;SDS011;25963;42.694;23.600;2022-11-11T04:24:08;62.55;;;34.45;;
40244;SDS011;25963;42.694;23.600;2022-11-11T04:27:03;56.58;;;29.88;;
40244;SDS011;25963;42.694;23.600;2022-11-11T04:29:33;66.32;;;32.42;;
40244;SDS011;25963;42.694;23.600;2022-11-11T04:32:08;58.35;;;33.50;;
40244;SDS011;25963;42.694;23.600;2022-11-11T04:34:54;66.65;;;35.75;;
40244;SDS011;25963;42.694;23.600;2022-11-11T04:37:22;78.32;;;40.05;;
40244;SDS011;25963;42.694;23.600;2022-11-11T04:39:49;79.35;;;41.00;;
40244;SDS011;25963;42.694;23.600;2022-11-11T04:42:33;92.25;;;47.00;;
40244;SDS011;25963;42.694;23.600;2022-11-11T04:44:59;97.78;;;51.05;;
40244;SDS011;25963;42.694;23.600;2022-11-11T04:47:53;87.05;;;46.40;;
40244;SDS011;25963;42.694;23.600;2022-11-11T04:50:20;100.03;;;47.90;;
40244;SDS011;25963;42.694;23.600;2022-11-11T04:52:47;95.85;;;48.97;;
40244;SDS011;25963;42.694;23.600;2022-11-11T04:55:13;97.55;;;49.58;;
40244;SDS011;25963;42.694;23.600;2022-11-11T04:57:57;98.57;;;50.95;;
40244;SDS011;25963;42.694;23.600;2022-11-11T05:00:22;96.95;;;50.75;;
40244;SDS011;25963;42.694;23.600;2022-11-11T05:02:51;96.22;;;48.60;;
40244;SDS011;25963;42.694;23.600;2022-11-11T05:05:36;97.93;;;50.97;;
40244;SDS011;25963;42.694;23.600;2022-11-11T05:08:20;89.70;;;46.67;;
40244;SDS011;25963;42.694;23.600;2022-11-11T05:11:04;106.07;;;52.10;;
40244;SDS011;25963;42.694;23.600;2022-11-11T05:13:30;96.15;;;53.60;;
40244;SDS011;25963;42.694;23.600;2022-11-11T05:16:18;101.75;;;53.70;;
40244;SDS011;25963;42.694;23.600;2022-11-11T05:19:05;114.73;;;54.40;;
40244;SDS011;25963;42.694;23.600;2022-11-11T05:21:52;103.20;;;53.45;;
40244;SDS011;25963;42.694;23.600;2022-11-11T05:24:21;104.30;;;53.85;;
40244;SDS011;25963;42.694;23.600;2022-11-11T05:27:05;92.78;;;48.90;;
40244;SDS011;25963;42.694;23.600;2022-11-11T05:29:30;91.82;;;47.63;;
40244;SDS011;25963;42.694;23.600;2022-11-11T05:31:56;109.15;;;53.83;;
40244;SDS011;25963;42.694;23.600;2022-11-11T05:34:21;102.35;;;51.55;;
40244;SDS011;25963;42.694;23.600;2022-11-11T05:36:47;98.80;;;52.70;;
40244;SDS011;25963;42.694;23.600;2022-11-11T05:39:12;100.28;;;52.63;;
40244;SDS011;25963;42.694;23.600;2022-11-11T05:41:37;110.72;;;54.30;;
40244;SDS011;25963;42.694;23.600;2022-11-11T05:44:03;115.22;;;59.70;;
40244;SDS011;25963;42.694;23.600;2022-11-11T05:46:28;117.88;;;62.85;;
40244;SDS011;25963;42.694;23.600;2022-11-11T05:48:54;115.03;;;63.25;;
40244;SDS011;25963;42.694;23.600;2022-11-11T05:51:38;121.90;;;60.95;;
40244;SDS011;25963;42.694;23.600;2022-11-11T05:54:03;116.45;;;66.75;;
40244;SDS011;25963;42.694;23.600;2022-11-11T05:56:28;170.82;;;97.80;;
40244;SDS011;25963;42.694;23.600;2022-11-11T05:58:54;136.60;;;76.55;;
40244;SDS011;25963;42.694;23.600;2022-11-11T06:01:19;118.55;;;60.42;;
40244;SDS011;25963;42.694;23.600;2022-11-11T06:03:45;115.13;;;58.17;;
40244;SDS011;25963;42.694;23.600;2022-11-11T06:06:11;111.85;;;56.67;;
40244;SDS011;25963;42.694;23.600;2022-11-11T06:08:37;117.35;;;61.30;;
40244;SDS011;25963;42.694;23.600;2022-11-11T06:11:02;129.57;;;66.82;;
40244;SDS011;25963;42.694;23.600;2022-11-11T06:13:28;248.95;;;121.72;;
40244;SDS011;25963;42.694;23.600;2022-11-11T06:15:54;119.22;;;63.08;;
40244;SDS011;25963;42.694;23.600;2022-11-11T06:18:21;119.45;;;62.63;;
40244;SDS011;25963;42.694;23.600;2022-11-11T06:20:51;108.65;;;61.35;;
40244;SDS011;25963;42.694;23.600;2022-11-11T06:23:18;153.05;;;80.63;;
40244;SDS011;25963;42.694;23.600;2022-11-11T06:25:43;149.88;;;80.93;;
40244;SDS011;25963;42.694;23.600;2022-11-11T06:28:27;154.63;;;82.18;;
40244;SDS011;25963;42.694;23.600;2022-11-11T06:30:52;130.98;;;70.28;;
40244;SDS011;25963;42.694;23.600;2022-11-11T06:33:18;138.02;;;74.07;;
40244;SDS011;25963;42.694;23.600;2022-11-11T06:35:44;298.83;;;129.82;;
40244;SDS011;25963;42.694;23.600;2022-11-11T06:38:09;318.08;;;136.50;;
40244;SDS011;25963;42.694;23.600;2022-11-11T06:40:35;143.05;;;75.25;;
40244;SDS011;25963;42.694;23.600;2022-11-11T06:43:00;102.22;;;56.47;;
40244;SDS011;25963;42.694;23.600;2022-11-11T06:45:27;111.20;;;62.58;;
40244;SDS011;25963;42.694;23.600;2022-11-11T06:47:54;251.68;;;120.78;;
40244;SDS011;25963;42.694;23.600;2022-11-11T06:50:19;156.55;;;80.03;;
40244;SDS011;25963;42.694;23.600;2022-11-11T06:52:45;113.85;;;59.67;;
40244;SDS011;25963;42.694;23.600;2022-11-11T06:55:12;107.65;;;58.08;;
40244;SDS011;25963;42.694;23.600;2022-11-11T06:57:38;108.63;;;59.90;;
40244;SDS011;25963;42.694;23.600;2022-11-11T07:00:04;110.03;;;62.63;;
40244;SDS011;25963;42.694;23.600;2022-11-11T07:02:30;102.47;;;58.05;;
40244;SDS011;25963;42.694;23.600;2022-11-11T07:04:56;111.75;;;60.90;;
40244;SDS011;25963;42.694;23.600;2022-11-11T07:07:21;108.47;;;62.05;;
40244;SDS011;25963;42.694;23.600;2022-11-11T07:09:47;105.65;;;59.13;;
40244;SDS011;25963;42.694;23.600;2022-11-11T07:12:12;100.97;;;57.63;;
40244;SDS011;25963;42.694;23.600;2022-11-11T07:14:38;98.85;;;57.10;;
40244;SDS011;25963;42.694;23.600;2022-11-11T07:17:03;137.30;;;66.75;;
40244;SDS011;25963;42.694;23.600;2022-11-11T07:19:29;209.95;;;89.50;;
40244;SDS011;25963;42.694;23.600;2022-11-11T07:21:55;166.63;;;77.75;;
40244;SDS011;25963;42.694;23.600;2022-11-11T07:24:20;107.25;;;59.22;;
40244;SDS011;25963;42.694;23.600;2022-11-11T07:26:46;106.03;;;60.58;;
40244;SDS011;25963;42.694;23.600;2022-11-11T07:29:11;317.08;;;132.82;;
40244;SDS011;25963;42.694;23.600;2022-11-11T07:31:39;282.67;;;126.78;;
40244;SDS011;25963;42.694;23.600;2022-11-11T07:34:05;118.95;;;67.10;;
40244;SDS011;25963;42.694;23.600;2022-11-11T07:36:30;109.93;;;65.13;;
40244;SDS011;25963;42.694;23.600;2022-11-11T07:38:55;113.97;;;60.63;;
40244;SDS011;25963;42.694;23.600;2022-11-11T07:41:21;111.53;;;62.15;;
40244;SDS011;25963;42.694;23.600;2022-11-11T07:43:47;105.22;;;62.63;;
40244;SDS011;25963;42.694;23.600;2022-11-11T07:46:12;102.38;;;61.42;;
40244;SDS011;25963;42.694;23.600;2022-11-11T07:48:38;95.90;;;53.38;;
40244;SDS011;25963;42.694;23.600;2022-11-11T07:51:03;122.10;;;65.60;;
40244;SDS011;25963;42.694;23.600;2022-11-11T07:53:29;103.63;;;60.92;;
40244;SDS011;25963;42.694;23.600;2022-11-11T07:55:54;95.63;;;54.78;;
40244;SDS011;25963;42.694;23.600;2022-11-11T07:58:19;135.13;;;65.82;;
40244;SDS011;25963;42.694;23.600;2022-11-11T08:00:45;87.32;;;54.50;;
40244;SDS011;25963;42.694;23.600;2022-11-11T08:03:10;122.50;;;64.82;;
40244;SDS011;25963;42.694;23.600;2022-11-11T08:05:36;111.60;;;63.70;;
40244;SDS011;25963;42.694;23.600;2022-11-11T08:08:05;110.88;;;61.72;;
40244;SDS011;25963;42.694;23.600;2022-11-11T08:10:31;102.50;;;56.75;;
40244;SDS011;25963;42.694;23.600;2022-11-11T08:12:57;108.00;;;60.15;;
40244;SDS011;25963;42.694;23.600;2022-11-11T08:15:41;105.07;;;58.95;;
40244;SDS011;25963;42.694;23.600;2022-11-11T08:18:07;211.25;;;105.18;;
40244;SDS011;25963;42.694;23.600;2022-11-11T08:20:33;93.22;;;53.05;;
40244;SDS011;25963;42.694;23.600;2022-11-11T08:22:59;82.07;;;49.13;;
40244;SDS011;25963;42.694;23.600;2022-11-11T08:25:28;82.15;;;47.60;;
40244;SDS011;25963;42.694;23.600;2022-11-11T08:27:57;94.13;;;49.92;;
40244;SDS011;25963;42.694;23.600;2022-11-11T08:30:24;88.10;;;48.08;;
40244;SDS011;25963;42.694;23.600;2022-11-11T08:32:59;92.10;;;52.63;;
40244;SDS011;25963;42.694;23.600;2022-11-11T08:35:26;80.90;;;48.05;;
40244;SDS011;25963;42.694;23.600;2022-11-11T08:37:52;78.32;;;43.88;;
40244;SDS011;25963;42.694;23.600;2022-11-11T08:40:18;113.88;;;65.85;;
40244;SDS011;25963;42.694;23.600;2022-11-11T08:42:44;81.05;;;48.28;;
40244;SDS011;25963;42.694;23.600;2022-11-11T08:45:09;89.97;;;49.83;;
40244;SDS011;25963;42.694;23.600;2022-11-11T08:47:35;79.03;;;42.75;;
40244;SDS011;25963;42.694;23.600;2022-11-11T08:50:02;73.95;;;43.85;;
40244;SDS011;25963;42.694;23.600;2022-11-11T08:52:28;70.82;;;42.38;;
40244;SDS011;25963;42.694;23.600;2022-11-11T08:54:54;73.57;;;41.83;;
40244;SDS011;25963;42.694;23.600;2022-11-11T08:57:20;70.57;;;41.13;;
40244;SDS011;25963;42.694;23.600;2022-11-11T08:59:45;66.70;;;39.72;;
40244;SDS011;25963;42.694;23.600;2022-11-11T09:02:11;66.90;;;39.25;;
40244;SDS011;25963;42.694;23.600;2022-11-11T09:04:38;73.53;;;41.53;;
40244;SDS011;25963;42.694;23.600;2022-11-11T09:07:04;56.15;;;34.55;;
40244;SDS011;25963;42.694;23.600;2022-11-11T09:09:31;66.05;;;36.45;;
40244;SDS011;25963;42.694;23.600;2022-11-11T09:11:56;52.70;;;34.72;;
40244;SDS011;25963;42.694;23.600;2022-11-11T09:14:22;51.72;;;31.35;;
40244;SDS011;25963;42.694;23.600;2022-11-11T09:16:48;57.55;;;31.95;;
40244;SDS011;25963;42.694;23.600;2022-11-11T09:19:13;53.63;;;33.30;;
40244;SDS011;25963;42.694;23.600;2022-11-11T09:21:39;64.35;;;36.97;;
40244;SDS011;25963;42.694;23.600;2022-11-11T09:24:04;48.17;;;29.45;;
40244;SDS011;25963;42.694;23.600;2022-11-11T09:26:30;48.70;;;29.63;;
40244;SDS011;25963;42.694;23.600;2022-11-11T09:28:55;45.80;;;30.17;;
40244;SDS011;25963;42.694;23.600;2022-11-11T09:31:21;53.65;;;32.88;;
40244;SDS011;25963;42.694;23.600;2022-11-11T09:33:48;41.78;;;27.70;;
40244;SDS011;25963;42.694;23.600;2022-11-11T09:36:16;42.10;;;27.50;;
40244;SDS011;25963;42.694;23.600;2022-11-11T09:38:42;56.08;;;31.42;;
40244;SDS011;25963;42.694;23.600;2022-11-11T09:41:14;48.63;;;30.38;;
40244;SDS011;25963;42.694;23.600;2022-11-11T09:46:32;33.10;;;21.92;;
40244;SDS011;25963;42.694;23.600;2022-11-11T09:49:21;51.55;;;27.60;;
40244;SDS011;25963;42.694;23.600;2022-11-11T09:51:54;30.50;;;18.77;;
40244;SDS011;25963;42.694;23.600;2022-11-11T09:57:09;30.05;;;20.25;;
40244;SDS011;25963;42.694;23.600;2022-11-11T09:59:47;26.08;;;18.52;;
40244;SDS011;25963;42.694;23.600;2022-11-11T10:02:17;28.90;;;18.90;;
40244;SDS011;25963;42.694;23.600;2022-11-11T10:05:02;30.60;;;19.27;;
40244;SDS011;25963;42.694;23.600;2022-11-11T10:10:26;23.27;;;15.68;;
40244;SDS011;25963;42.694;23.600;2022-11-11T10:12:58;24.63;;;16.67;;
40244;SDS011;25963;42.694;23.600;2022-11-11T10:15:25;21.58;;;16.20;;
40244;SDS011;25963;42.694;23.600;2022-11-11T10:18:03;22.95;;;15.98;;
40244;SDS011;25963;42.694;23.600;2022-11-11T10:20:34;39.05;;;17.75;;
40244;SDS011;25963;42.694;23.600;2022-11-11T10:23:15;24.55;;;15.38;;
40244;SDS011;25963;42.694;23.600;2022-11-11T10:25:45;27.95;;;14.40;;
40244;SDS011;25963;42.694;23.600;2022-11-11T10:28:18;21.17;;;13.52;;
40244;SDS011;25963;42.694;23.600;2022-11-11T10:30:46;22.20;;;14.13;;
40244;SDS011;25963;42.694;23.600;2022-11-11T10:33:15;19.73;;;14.98;;
40244;SDS011;25963;42.694;23.600;2022-11-11T10:35:46;25.00;;;14.82;;
40244;SDS011;25963;42.694;23.600;2022-11-11T10:44:21;21.75;;;15.13;;
40244;SDS011;25963;42.694;23.600;2022-11-11T10:47:03;19.52;;;13.20;;
40244;SDS011;25963;42.694;23.600;2022-11-11T10:50:14;19.27;;;12.75;;
40244;SDS011;25963;42.694;23.600;2022-11-11T10:55:34;17.77;;;12.95;;
40244;SDS011;25963;42.694;23.600;2022-11-11T11:00:40;17.95;;;11.18;;
40244;SDS011;25963;42.694;23.600;2022-11-11T11:08:52;37.08;;;16.17;;
40244;SDS011;25963;42.694;23.600;2022-11-11T11:14:38;81.45;;;30.77;;
40244;SDS011;25963;42.694;23.600;2022-11-11T11:22:48;22.38;;;15.25;;
40244;SDS011;25963;42.694;23.600;2022-11-11T11:25:14;33.08;;;19.25;;
40244;SDS011;25963;42.694;23.600;2022-11-11T11:27:40;30.90;;;19.20;;
40244;SDS011;25963;42.694;23.600;2022-11-11T11:30:10;44.30;;;30.30;;
40244;SDS011;25963;42.694;23.600;2022-11-11T11:32:38;37.88;;;26.55;;
40244;SDS011;25963;42.694;23.600;2022-11-11T11:35:06;24.08;;;19.33;;
40244;SDS011;25963;42.694;23.600;2022-11-11T11:37:35;32.35;;;24.42;;
40244;SDS011;25963;42.694;23.600;2022-11-11T11:40:13;78.00;;;55.30;;
40244;SDS011;25963;42.694;23.600;2022-11-11T11:42:39;30.45;;;22.92;;
40244;SDS011;25963;42.694;23.600;2022-11-11T11:50:39;29.40;;;16.88;;
40244;SDS011;25963;42.694;23.600;2022-11-11T11:53:24;25.08;;;16.95;;
40244;SDS011;25963;42.694;23.600;2022-11-11T11:55:58;16.52;;;13.35;;
40244;SDS011;25963;42.694;23.600;2022-11-11T12:01:32;18.55;;;13.23;;
40244;SDS011;25963;42.694;23.600;2022-11-11T12:15:40;16.48;;;13.43;;
40244;SDS011;25963;42.694;23.600;2022-11-11T12:21:14;20.42;;;12.35;;
40244;SDS011;25963;42.694;23.600;2022-11-11T12:26:23;18.98;;;12.35;;
40244;SDS011;25963;42.694;23.600;2022-11-11T12:34:21;19.98;;;11.38;;
40244;SDS011;25963;42.694;23.600;2022-11-11T12:40:05;14.05;;;11.32;;
40244;SDS011;25963;42.694;23.600;2022-11-11T12:45:47;14.10;;;10.30;;
40244;SDS011;25963;42.694;23.600;2022-11-11T12:54:15;27.35;;;18.58;;
40244;SDS011;25963;42.694;23.600;2022-11-11T13:16:01;35.40;;;21.08;;
40244;SDS011;25963;42.694;23.600;2022-11-11T13:18:29;21.70;;;14.40;;
40244;SDS011;25963;42.694;23.600;2022-11-11T13:21:05;43.72;;;30.02;;
40244;SDS011;25963;42.694;23.600;2022-11-11T13:23:34;37.63;;;25.10;;
40244;SDS011;25963;42.694;23.600;2022-11-11T13:26:00;22.25;;;15.75;;
40244;SDS011;25963;42.694;23.600;2022-11-11T13:28:39;16.27;;;11.52;;
40244;SDS011;25963;42.694;23.600;2022-11-11T13:33:54;14.98;;;10.50;;
40244;SDS011;25963;42.694;23.600;2022-11-11T13:36:24;14.57;;;10.48;;
40244;SDS011;25963;42.694;23.600;2022-11-11T13:38:54;14.30;;;9.77;;
40244;SDS011;25963;42.694;23.600;2022-11-11T13:41:29;15.93;;;11.05;;
40244;SDS011;25963;42.694;23.600;2022-11-11T13:44:01;14.07;;;9.82;;
40244;SDS011;25963;42.694;23.600;2022-11-11T13:46:36;15.68;;;8.73;;
40244;SDS011;25963;42.694;23.600;2022-11-11T13:49:09;16.38;;;10.55;;
40244;SDS011;25963;42.694;23.600;2022-11-11T13:51:57;21.25;;;12.88;;
40244;SDS011;25963;42.694;23.600;2022-11-11T13:59:41;16.10;;;10.93;;
40244;SDS011;25963;42.694;23.600;2022-11-11T14:12:53;13.82;;;8.55;;
40244;SDS011;25963;42.694;23.600;2022-11-11T14:15:33;14.77;;;9.57;;
40244;SDS011;25963;42.694;23.600;2022-11-11T14:20:41;15.75;;;9.90;;
40244;SDS011;25963;42.694;23.600;2022-11-11T14:26:28;16.02;;;10.48;;
40244;SDS011;25963;42.694;23.600;2022-11-11T14:42:01;14.57;;;8.73;;
40244;SDS011;25963;42.694;23.600;2022-11-11T14:55:02;15.30;;;9.18;;
40244;SDS011;25963;42.694;23.600;2022-11-11T14:57:38;17.98;;;11.07;;
40244;SDS011;25963;42.694;23.600;2022-11-11T15:00:10;16.23;;;10.43;;
40244;SDS011;25963;42.694;23.600;2022-11-11T15:02:43;23.13;;;13.13;;
40244;SDS011;25963;42.694;23.600;2022-11-11T15:13:53;13.75;;;9.80;;
40244;SDS011;25963;42.694;23.600;2022-11-11T15:22:06;78.80;;;53.25;;
40244;SDS011;25963;42.694;23.600;2022-11-11T15:27:53;39.97;;;23.88;;
40244;SDS011;25963;42.694;23.600;2022-11-11T15:30:31;36.30;;;18.33;;
40244;SDS011;25963;42.694;23.600;2022-11-11T15:38:36;25.75;;;15.95;;
40244;SDS011;25963;42.694;23.600;2022-11-11T15:41:03;29.52;;;18.45;;
40244;SDS011;25963;42.694;23.600;2022-11-11T15:43:30;16.67;;;11.65;;
40244;SDS011;25963;42.694;23.600;2022-11-11T15:46:00;93.82;;;49.30;;
40244;SDS011;25963;42.694;23.600;2022-11-11T15:48:37;94.70;;;52.30;;
40244;SDS011;25963;42.694;23.600;2022-11-11T15:51:41;56.08;;;31.98;;
40244;SDS011;25963;42.694;23.600;2022-11-11T15:56:46;43.80;;;23.88;;
40244;SDS011;25963;42.694;23.600;2022-11-11T16:01:41;50.05;;;31.25;;
40244;SDS011;25963;42.694;23.600;2022-11-11T16:04:07;48.45;;;28.98;;
40244;SDS011;25963;42.694;23.600;2022-11-11T16:06:35;35.13;;;20.40;;
40244;SDS011;25963;42.694;23.600;2022-11-11T16:09:02;28.63;;;16.67;;
40244;SDS011;25963;42.694;23.600;2022-11-11T16:11:27;26.83;;;17.02;;
40244;SDS011;25963;42.694;23.600;2022-11-11T16:13:55;27.65;;;18.85;;
40244;SDS011;25963;42.694;23.600;2022-11-11T16:16:31;24.70;;;15.10;;
40244;SDS011;25963;42.694;23.600;2022-11-11T16:19:08;31.95;;;18.55;;
40244;SDS011;25963;42.694;23.600;2022-11-11T16:24:43;37.33;;;22.75;;
40244;SDS011;25963;42.694;23.600;2022-11-11T16:27:14;32.33;;;20.13;;
40244;SDS011;25963;42.694;23.600;2022-11-11T16:29:42;41.47;;;23.85;;
40244;SDS011;25963;42.694;23.600;2022-11-11T16:34:48;34.72;;;22.08;;
40244;SDS011;25963;42.694;23.600;2022-11-11T16:37:16;28.40;;;17.92;;
40244;SDS011;25963;42.694;23.600;2022-11-11T16:39:43;32.50;;;19.52;;
40244;SDS011;25963;42.694;23.600;2022-11-11T16:42:22;30.90;;;18.42;;
40244;SDS011;25963;42.694;23.600;2022-11-11T16:55:17;34.42;;;23.13;;
40244;SDS011;25963;42.694;23.600;2022-11-11T16:57:46;26.13;;;17.08;;
40244;SDS011;25963;42.694;23.600;2022-11-11T17:00:12;30.98;;;20.00;;
40244;SDS011;25963;42.694;23.600;2022-11-11T17:02:40;46.28;;;26.20;;
40244;SDS011;25963;42.694;23.600;2022-11-11T17:05:05;24.25;;;15.85;;
40244;SDS011;25963;42.694;23.600;2022-11-11T17:07:32;49.47;;;30.88;;
40244;SDS011;25963;42.694;23.600;2022-11-11T17:12:45;29.00;;;18.90;;
40244;SDS011;25963;42.694;23.600;2022-11-11T17:15:12;33.78;;;20.95;;
40244;SDS011;25963;42.694;23.600;2022-11-11T17:17:40;29.42;;;19.25;;
40244;SDS011;25963;42.694;23.600;2022-11-11T17:20:11;22.65;;;15.00;;
40244;SDS011;25963;42.694;23.600;2022-11-11T17:22:51;24.75;;;16.25;;
40244;SDS011;25963;42.694;23.600;2022-11-11T17:25:18;31.35;;;19.60;;
40244;SDS011;25963;42.694;23.600;2022-11-11T17:27:44;29.27;;;17.50;;
40244;SDS011;25963;42.694;23.600;2022-11-11T17:30:10;20.30;;;12.63;;
40244;SDS011;25963;42.694;23.600;2022-11-11T17:32:37;21.23;;;13.13;;
40244;SDS011;25963;42.694;23.600;2022-11-11T17:35:02;44.10;;;24.02;;
40244;SDS011;25963;42.694;23.600;2022-11-11T17:37:31;26.83;;;15.43;;
40244;SDS011;25963;42.694;23.600;2022-11-11T17:39:58;21.33;;;14.52;;
40244;SDS011;25963;42.694;23.600;2022-11-11T17:42:23;24.55;;;13.25;;
40244;SDS011;25963;42.694;23.600;2022-11-11T17:44:49;24.95;;;12.63;;